createdAt,value
2022-09-06T00:00:18.731Z,24.75
2022-09-06T00:02:47.026Z,21.90
2022-09-06T00:05:14.665Z,23.52
2022-09-06T00:07:42.032Z,25.20
2022-09-06T00:10:10.383Z,23.42
2022-09-06T00:12:38.150Z,22.90
2022-09-06T00:15:06.648Z,23.77
2022-09-06T00:17:34.441Z,24.23
2022-09-06T00:20:03.571Z,24.60
2022-09-06T00:22:30.899Z,24.67
2022-09-06T00:24:57.863Z,25.55
2022-09-06T00:27:24.894Z,25.92
2022-09-06T00:29:52.199Z,24.48
2022-09-06T00:32:19.192Z,24.92
2022-09-06T00:35:00.021Z,23.75
2022-09-06T00:37:33.659Z,25.08
2022-09-06T00:40:00.664Z,25.70
2022-09-06T00:42:27.737Z,27.00
2022-09-06T00:44:55.045Z,26.75
2022-09-06T00:47:22.109Z,26.67
2022-09-06T00:49:53.782Z,26.60
2022-09-06T00:52:22.279Z,26.15
2022-09-06T00:54:51.031Z,26.73
2022-09-06T00:57:18.796Z,28.02
2022-09-06T00:59:47.713Z,29.23
2022-09-06T01:02:15.122Z,30.63
2022-09-06T01:04:44.581Z,32.50
2022-09-06T01:07:25.686Z,31.92
2022-09-06T01:10:21.888Z,29.67
2022-09-06T01:13:17.331Z,29.83
2022-09-06T01:16:19.931Z,28.83
2022-09-06T01:19:10.882Z,31.52
2022-09-06T01:22:08.484Z,31.42
2022-09-06T01:24:54.802Z,32.28
2022-09-06T01:27:44.260Z,34.65
2022-09-06T01:30:13.822Z,34.05
2022-09-06T01:33:11.769Z,34.70
2022-09-06T01:35:55.325Z,34.40
2022-09-06T01:38:22.448Z,33.15
2022-09-06T01:40:49.408Z,33.63
2022-09-06T01:43:34.755Z,34.58
2022-09-06T01:46:27.863Z,33.28
2022-09-06T01:49:13.342Z,35.65
2022-09-06T01:52:09.127Z,32.72
2022-09-06T01:54:57.944Z,31.38
2022-09-06T01:58:04.836Z,31.00
2022-09-06T02:00:53.904Z,31.08
2022-09-06T02:03:49.618Z,32.22
2022-09-06T02:06:28.851Z,32.38
2022-09-06T02:09:07.685Z,33.58
2022-09-06T02:11:48.629Z,34.63
2022-09-06T02:14:22.892Z,34.78
2022-09-06T02:16:53.889Z,34.13
2022-09-06T02:19:50.029Z,35.22
2022-09-06T02:22:22.429Z,36.03
2022-09-06T02:24:53.551Z,36.05
2022-09-06T02:27:20.681Z,38.75
2022-09-06T02:29:47.662Z,37.67
2022-09-06T02:32:25.759Z,37.35
2022-09-06T02:34:55.790Z,37.33
2022-09-06T02:37:26.909Z,35.78
2022-09-06T02:39:56.188Z,37.63
2022-09-06T02:42:24.910Z,36.08
2022-09-06T02:44:52.164Z,37.53
2022-09-06T02:47:19.355Z,38.05
2022-09-06T02:49:46.324Z,37.85
2022-09-06T02:52:13.435Z,38.13
2022-09-06T02:54:40.960Z,36.30
2022-09-06T02:57:08.012Z,39.55
2022-09-06T02:59:34.923Z,39.28
2022-09-06T03:02:02.020Z,39.08
2022-09-06T03:04:29.026Z,36.97
2022-09-06T03:06:56.503Z,39.85
2022-09-06T03:09:23.508Z,37.85
2022-09-06T03:11:50.640Z,37.38
2022-09-06T03:14:19.463Z,38.65
2022-09-06T03:16:46.386Z,38.72
2022-09-06T03:19:13.349Z,39.25
2022-09-06T03:21:40.277Z,38.67
2022-09-06T03:24:07.318Z,39.40
2022-09-06T03:26:34.262Z,35.72
2022-09-06T03:29:01.213Z,36.60
2022-09-06T03:31:28.274Z,37.40
2022-09-06T03:33:55.198Z,35.00
2022-09-06T03:36:22.388Z,37.05
2022-09-06T03:38:51.141Z,36.55
2022-09-06T03:41:18.230Z,35.90
2022-09-06T03:43:45.179Z,35.70
2022-09-06T03:46:13.644Z,35.80
2022-09-06T03:48:40.906Z,35.60
2022-09-06T03:51:07.881Z,34.38
2022-09-06T03:53:35.025Z,35.53
2022-09-06T03:56:02.519Z,36.33
2022-09-06T03:58:31.694Z,35.40
2022-09-06T04:01:11.972Z,33.67
2022-09-06T04:03:39.506Z,31.60
2022-09-06T04:06:08.275Z,32.55
2022-09-06T04:08:38.204Z,33.83
2022-09-06T04:11:06.247Z,32.05
2022-09-06T04:13:34.894Z,35.58
2022-09-06T04:16:02.386Z,32.15
2022-09-06T04:18:29.793Z,33.38
2022-09-06T04:20:58.179Z,34.03
2022-09-06T04:23:27.889Z,35.40
2022-09-06T04:25:57.138Z,34.25
2022-09-06T04:28:26.538Z,33.67
2022-09-06T04:30:55.893Z,32.28
2022-09-06T04:33:27.625Z,33.75
2022-09-06T04:36:00.665Z,33.70
2022-09-06T04:38:30.466Z,33.90
2022-09-06T04:40:57.626Z,36.90
2022-09-06T04:43:25.037Z,34.70
2022-09-06T04:45:52.242Z,34.90
2022-09-06T04:48:19.337Z,32.83
2022-09-06T04:50:46.425Z,35.17
2022-09-06T04:53:13.569Z,36.75
2022-09-06T04:55:40.604Z,33.60
2022-09-06T04:58:07.688Z,35.20
2022-09-06T05:00:36.474Z,35.85
2022-09-06T05:03:03.933Z,36.38
2022-09-06T05:05:30.981Z,35.38
2022-09-06T05:07:58.157Z,35.40
2022-09-06T05:10:25.327Z,35.17
2022-09-06T05:12:54.103Z,34.30
2022-09-06T05:15:22.628Z,35.53
2022-09-06T05:17:49.667Z,34.75
2022-09-06T05:20:17.705Z,36.17
2022-09-06T05:22:53.675Z,35.83
2022-09-06T05:25:20.996Z,36.00
2022-09-06T05:27:48.136Z,36.65
2022-09-06T05:30:15.798Z,36.78
2022-09-06T05:32:42.966Z,38.83
2022-09-06T05:35:10.026Z,37.63
2022-09-06T05:37:37.010Z,37.47
2022-09-06T05:40:04.130Z,37.03
2022-09-06T05:42:31.078Z,37.90
2022-09-06T05:44:58.023Z,36.80
2022-09-06T05:47:25.208Z,37.05
2022-09-06T05:49:53.976Z,36.38
2022-09-06T05:52:20.883Z,38.03
2022-09-06T05:54:47.833Z,38.00
2022-09-06T05:57:14.818Z,37.58
2022-09-06T05:59:41.741Z,38.53
2022-09-06T06:02:08.728Z,40.30
2022-09-06T06:04:36.095Z,36.67
2022-09-06T06:07:03.065Z,39.20
2022-09-06T06:09:30.756Z,37.17
2022-09-06T06:11:58.101Z,39.38
2022-09-06T06:14:25.316Z,37.35
2022-09-06T06:16:52.757Z,35.50
2022-09-06T06:19:19.910Z,38.75
2022-09-06T06:21:46.915Z,36.55
2022-09-06T06:24:14.235Z,39.45
2022-09-06T06:26:41.377Z,38.00
2022-09-06T06:29:09.683Z,37.30
2022-09-06T06:31:39.249Z,36.80
2022-09-06T06:34:07.127Z,36.65
2022-09-06T06:36:36.251Z,38.17
2022-09-06T06:39:06.709Z,34.90
2022-09-06T06:41:34.556Z,35.88
2022-09-06T06:44:04.029Z,35.63
2022-09-06T06:46:41.685Z,34.28
2022-09-06T06:49:08.754Z,34.55
2022-09-06T06:51:39.508Z,36.20
2022-09-06T06:54:06.604Z,37.00
2022-09-06T06:56:37.775Z,37.28
2022-09-06T06:59:07.820Z,38.03
2022-09-06T07:01:37.322Z,38.80
2022-09-06T07:04:06.167Z,42.00
2022-09-06T07:12:24.711Z,37.08
2022-09-06T07:14:51.819Z,35.90
2022-09-06T07:17:18.757Z,34.25
2022-09-06T07:22:32.740Z,32.35
2022-09-06T07:24:59.705Z,30.88
2022-09-06T07:30:14.358Z,34.63
2022-09-06T07:32:41.555Z,32.28
2022-09-06T07:35:09.248Z,34.22
2022-09-06T07:37:36.184Z,34.15
2022-09-06T07:40:04.652Z,30.75
2022-09-06T07:42:36.347Z,32.33
2022-09-06T07:45:05.475Z,30.05
2022-09-06T07:53:14.976Z,27.00
2022-09-06T07:55:44.723Z,28.60
2022-09-06T07:58:11.737Z,28.25
2022-09-06T08:00:41.216Z,25.45
2022-09-06T08:03:08.757Z,25.90
2022-09-06T08:11:10.664Z,25.70
2022-09-06T08:13:38.316Z,26.83
2022-09-06T08:16:08.850Z,25.65
2022-09-06T08:18:37.900Z,26.67
2022-09-06T08:21:15.957Z,26.73
2022-09-06T08:23:49.722Z,28.02
2022-09-06T08:26:18.555Z,28.15
2022-09-06T08:28:45.539Z,26.63
2022-09-06T08:31:18.004Z,24.35
2022-09-06T08:33:45.636Z,25.10
2022-09-06T08:36:12.644Z,26.42
2022-09-06T08:38:39.708Z,26.17
2022-09-06T08:41:27.665Z,24.13
2022-09-06T08:47:11.032Z,24.75
2022-09-06T08:49:47.443Z,23.45
2022-09-06T08:52:54.489Z,23.58
2022-09-06T08:55:54.135Z,23.58
2022-09-06T08:58:50.340Z,23.58
2022-09-06T09:01:23.226Z,22.08
2022-09-06T09:03:53.574Z,20.02
2022-09-06T09:06:20.752Z,19.38
2022-09-06T09:09:08.461Z,21.23
2022-09-06T09:11:36.619Z,18.40
2022-09-06T09:14:16.469Z,16.48
2022-09-06T09:16:44.218Z,17.95
2022-09-06T09:19:11.370Z,16.73
2022-09-06T09:21:40.518Z,15.75
2022-09-06T09:24:11.254Z,17.85
2022-09-06T09:27:11.319Z,17.13
2022-09-06T09:32:45.206Z,13.93
2022-09-06T09:35:27.588Z,14.20
2022-09-06T09:38:11.015Z,13.95
2022-09-06T09:41:00.784Z,14.95
2022-09-06T09:43:33.485Z,14.80
2022-09-06T09:46:13.225Z,15.15
2022-09-06T09:48:49.708Z,14.27
2022-09-06T09:51:26.202Z,12.82
2022-09-06T09:53:57.015Z,13.07
2022-09-06T09:56:47.817Z,12.60
2022-09-06T09:59:25.129Z,14.45
2022-09-06T10:01:56.486Z,14.23
2022-09-06T10:07:14.797Z,16.05
2022-09-06T10:09:46.844Z,15.73
2022-09-06T10:12:19.036Z,13.02
2022-09-06T10:14:49.768Z,13.50
2022-09-06T10:17:37.814Z,12.40
2022-09-06T10:20:12.920Z,10.48
2022-09-06T10:22:50.148Z,10.23
2022-09-06T10:26:16.113Z,11.23
2022-09-06T10:28:44.266Z,11.27
2022-09-06T10:31:51.176Z,10.75
2022-09-06T10:35:03.348Z,10.93
2022-09-06T10:38:07.595Z,11.85
2022-09-06T10:41:01.025Z,12.27
2022-09-06T10:43:43.938Z,13.85
2022-09-06T10:46:16.194Z,15.00
2022-09-06T10:48:46.252Z,17.30
2022-09-06T10:51:32.327Z,17.08
2022-09-06T10:54:09.757Z,17.48
2022-09-06T10:56:50.117Z,17.83
2022-09-06T10:59:42.132Z,19.48
2022-09-06T11:02:40.499Z,19.35
2022-09-06T11:11:11.861Z,19.13
2022-09-06T11:13:39.198Z,17.85
2022-09-06T11:16:18.748Z,19.83
2022-09-06T11:19:06.035Z,19.70
2022-09-06T11:22:06.795Z,21.40
2022-09-06T11:24:44.222Z,20.77
2022-09-06T11:27:28.014Z,17.60
2022-09-06T11:32:34.195Z,17.60
2022-09-06T11:35:07.434Z,19.88
2022-09-06T11:37:39.410Z,20.10
2022-09-06T11:40:28.224Z,18.85
2022-09-06T11:42:55.745Z,17.65
2022-09-06T11:45:50.834Z,16.75
2022-09-06T11:48:23.502Z,15.25
2022-09-06T11:50:59.260Z,16.10
2022-09-06T11:53:32.923Z,13.88
2022-09-06T11:56:00.064Z,14.85
2022-09-06T11:58:34.317Z,12.13
2022-09-06T12:01:13.392Z,7.43
2022-09-06T12:07:07.604Z,8.30
2022-09-06T12:09:37.933Z,9.77
2022-09-06T12:12:05.998Z,9.85
2022-09-06T12:14:46.813Z,10.45
2022-09-06T12:17:14.018Z,9.10
2022-09-06T12:20:08.303Z,9.90
2022-09-06T12:22:40.313Z,9.30
2022-09-06T12:25:35.978Z,7.00
2022-09-06T12:28:07.447Z,7.28
2022-09-06T12:30:42.138Z,6.53
2022-09-06T12:33:36.201Z,4.85
2022-09-06T12:38:57.352Z,6.65
2022-09-06T12:41:27.806Z,6.60
2022-09-06T12:43:56.188Z,6.60
2022-09-06T12:46:25.793Z,7.10
2022-09-06T12:49:22.295Z,7.90
2022-09-06T12:51:49.860Z,6.10
2022-09-06T12:54:23.926Z,5.75
2022-09-06T12:56:52.762Z,5.03
2022-09-06T12:59:21.378Z,4.55
2022-09-06T13:02:16.758Z,7.25
2022-09-06T13:04:51.309Z,4.80
2022-09-06T13:07:21.081Z,4.20
2022-09-06T13:09:52.036Z,4.43
2022-09-06T13:12:34.869Z,4.72
2022-09-06T13:15:13.587Z,5.07
2022-09-06T13:17:40.613Z,4.20
2022-09-06T13:20:30.786Z,3.70
2022-09-06T13:23:10.514Z,3.75
2022-09-06T13:25:53.131Z,3.33
2022-09-06T13:28:29.574Z,2.57
2022-09-06T13:31:21.673Z,2.97
2022-09-06T13:33:57.527Z,2.17
2022-09-06T13:36:33.875Z,2.20
2022-09-06T13:39:03.748Z,2.03
2022-09-06T13:41:30.628Z,2.10
2022-09-06T13:44:29.765Z,1.80
2022-09-06T13:46:58.087Z,1.80
2022-09-06T13:49:25.927Z,1.52
2022-09-06T13:51:56.377Z,1.60
2022-09-06T13:54:24.949Z,1.20
2022-09-06T13:56:51.970Z,2.67
2022-09-06T13:59:19.423Z,2.28
2022-09-06T14:01:50.374Z,2.13
2022-09-06T14:04:21.647Z,2.53
2022-09-06T14:06:49.087Z,1.98
2022-09-06T14:09:16.347Z,2.63
2022-09-06T14:11:48.006Z,3.05
2022-09-06T14:14:17.731Z,3.17
2022-09-06T14:16:47.628Z,2.35
2022-09-06T14:19:15.473Z,2.42
2022-09-06T14:21:43.339Z,2.42
2022-09-06T14:24:11.180Z,3.05
2022-09-06T14:26:38.876Z,1.67
2022-09-06T14:29:06.391Z,2.20
2022-09-06T14:31:33.645Z,2.35
2022-09-06T14:34:02.088Z,2.60
2022-09-06T14:36:31.584Z,2.00
2022-09-06T14:39:00.951Z,1.95
2022-09-06T14:41:28.505Z,1.98
2022-09-06T14:43:58.260Z,1.50
2022-09-06T14:46:28.094Z,1.65
2022-09-06T14:49:04.719Z,1.63
2022-09-06T14:51:31.844Z,1.52
2022-09-06T14:54:06.670Z,1.60
2022-09-06T14:56:34.495Z,1.40
2022-09-06T14:59:01.675Z,2.13
2022-09-06T15:01:35.776Z,1.63
2022-09-06T15:04:07.546Z,1.58
2022-09-06T15:06:37.177Z,2.10
2022-09-06T15:09:05.719Z,1.45
2022-09-06T15:11:37.311Z,1.38
2022-09-06T15:14:08.598Z,1.88
2022-09-06T15:16:36.470Z,1.27
2022-09-06T15:19:04.195Z,1.50
2022-09-06T15:21:32.165Z,1.42
2022-09-06T15:24:03.163Z,1.40
2022-09-06T15:26:30.850Z,2.33
2022-09-06T15:28:57.901Z,1.45
2022-09-06T15:31:25.403Z,1.70
2022-09-06T15:33:52.863Z,1.67
2022-09-06T15:36:20.830Z,1.25
2022-09-06T15:38:50.097Z,1.02
2022-09-06T15:41:25.307Z,1.35
2022-09-06T15:44:01.721Z,1.10
2022-09-06T15:46:35.038Z,1.48
2022-09-06T15:51:34.075Z,1.40
2022-09-06T15:54:01.351Z,1.20
2022-09-06T15:56:28.594Z,1.60
2022-09-06T15:58:55.569Z,1.08
2022-09-06T16:01:25.710Z,1.23
2022-09-06T16:04:03.434Z,1.45
2022-09-06T16:06:43.938Z,1.13
2022-09-06T16:09:14.337Z,1.23
2022-09-06T16:11:42.312Z,1.17
2022-09-06T16:14:13.758Z,1.35
2022-09-06T16:16:42.446Z,0.65
2022-09-06T16:19:12.550Z,1.10
2022-09-06T16:21:43.995Z,1.00
2022-09-06T16:24:14.364Z,1.02
2022-09-06T16:26:46.222Z,1.10
2022-09-06T16:29:16.583Z,1.35
2022-09-06T16:31:44.152Z,1.40
2022-09-06T16:34:12.873Z,1.08
2022-09-06T16:36:40.323Z,0.70
2022-09-06T16:39:08.707Z,1.38
2022-09-06T16:41:40.651Z,1.00
2022-09-06T16:44:16.734Z,1.75
2022-09-06T16:46:50.009Z,1.20
2022-09-06T16:49:19.204Z,1.27
2022-09-06T16:51:48.243Z,0.93
2022-09-06T16:54:15.903Z,1.42
2022-09-06T16:56:42.950Z,1.30
2022-09-06T16:59:11.635Z,1.15
2022-09-06T17:01:41.834Z,1.00
2022-09-06T17:04:09.739Z,0.90
2022-09-06T17:06:44.257Z,1.20
2022-09-06T17:09:14.741Z,0.98
2022-09-06T17:11:41.801Z,1.30
2022-09-06T17:14:09.192Z,1.77
2022-09-06T17:16:54.748Z,1.58
2022-09-06T17:19:22.442Z,1.50
2022-09-06T17:21:49.685Z,1.60
2022-09-06T17:24:17.082Z,2.13
2022-09-06T17:26:44.127Z,1.98
2022-09-06T17:29:11.114Z,1.13
2022-09-06T17:31:38.862Z,1.38
2022-09-06T17:34:07.084Z,1.10
2022-09-06T17:36:53.237Z,1.48
2022-09-06T17:39:21.421Z,1.00
2022-09-06T17:41:52.254Z,1.73
2022-09-06T17:44:22.676Z,0.82
2022-09-06T17:47:11.458Z,1.42
2022-09-06T17:49:36.847Z,1.45
2022-09-06T17:52:03.925Z,1.38
2022-09-06T17:54:31.856Z,1.23
2022-09-06T17:56:58.940Z,0.90
2022-09-06T17:59:25.995Z,1.20
2022-09-06T18:01:52.999Z,1.27
2022-09-06T18:04:20.037Z,1.23
2022-09-06T18:06:47.592Z,1.38
2022-09-06T18:09:17.583Z,1.33
2022-09-06T18:11:48.432Z,1.48
2022-09-06T18:14:18.738Z,1.60
2022-09-06T18:16:47.377Z,1.58
2022-09-06T18:19:15.648Z,1.45
2022-09-06T18:21:43.162Z,1.42
2022-09-06T18:24:13.867Z,1.30
2022-09-06T18:26:41.949Z,1.73
2022-09-06T18:29:13.024Z,2.00
2022-09-06T18:31:41.264Z,1.38
2022-09-06T18:34:09.333Z,1.65
2022-09-06T18:36:38.369Z,2.17
2022-09-06T18:39:06.357Z,1.55
2022-09-06T18:41:52.751Z,2.25
2022-09-06T18:44:19.848Z,1.67
2022-09-06T18:46:47.935Z,1.75
2022-09-06T18:49:15.869Z,2.17
2022-09-06T18:51:44.649Z,2.15
2022-09-06T18:54:11.639Z,1.80
2022-09-06T18:56:38.734Z,1.92
2022-09-06T18:59:07.104Z,2.63
2022-09-06T19:01:35.322Z,1.88
2022-09-06T19:04:10.879Z,2.30
2022-09-06T19:06:40.223Z,1.95
2022-09-06T19:09:11.947Z,3.13
2022-09-06T19:11:41.565Z,3.15
2022-09-06T19:14:08.637Z,3.25
2022-09-06T19:16:35.902Z,3.13
2022-09-06T19:19:06.836Z,3.67
2022-09-06T19:21:37.935Z,4.00
2022-09-06T19:24:12.058Z,3.80
2022-09-06T19:26:43.494Z,3.22
2022-09-06T19:29:17.547Z,3.33
2022-09-06T19:31:46.957Z,4.15
2022-09-06T19:34:15.524Z,3.90
2022-09-06T19:36:44.523Z,4.90
2022-09-06T19:39:15.501Z,4.35
2022-09-06T19:41:45.071Z,3.20
2022-09-06T19:44:12.885Z,3.95
2022-09-06T19:46:45.466Z,3.92
2022-09-06T19:49:15.968Z,4.88
2022-09-06T19:51:45.279Z,4.45
2022-09-06T19:54:15.386Z,4.72
2022-09-06T19:56:43.709Z,3.72
2022-09-06T19:59:12.933Z,3.78
2022-09-06T20:01:42.360Z,3.67
2022-09-06T20:04:11.766Z,4.55
2022-09-06T20:06:39.275Z,4.90
2022-09-06T20:09:09.961Z,5.85
2022-09-06T20:11:38.830Z,6.00
2022-09-06T20:14:06.169Z,5.65
2022-09-06T20:16:34.585Z,6.53
2022-09-06T20:19:04.047Z,7.28
2022-09-06T20:21:31.508Z,8.25
2022-09-06T20:23:59.561Z,8.43
2022-09-06T20:26:30.369Z,7.53
2022-09-06T20:29:02.771Z,8.40
2022-09-06T20:31:31.627Z,9.23
2022-09-06T20:34:00.854Z,9.00
2022-09-06T20:36:28.442Z,7.70
2022-09-06T20:38:55.478Z,8.30
2022-09-06T20:41:25.877Z,8.45
2022-09-06T20:43:58.582Z,7.97
2022-09-06T20:46:29.238Z,7.53
2022-09-06T20:48:59.710Z,8.00
2022-09-06T20:51:31.039Z,9.07
2022-09-06T20:56:34.502Z,7.13
2022-09-06T21:01:36.078Z,6.18
2022-09-06T21:04:06.351Z,5.75
2022-09-06T21:06:36.606Z,6.15
2022-09-06T21:09:11.169Z,5.65
2022-09-06T21:11:38.869Z,5.00
2022-09-06T21:14:07.564Z,5.43
2022-09-06T21:16:35.037Z,5.55
2022-09-06T21:19:05.706Z,5.30
2022-09-06T21:21:34.750Z,5.53
2022-09-06T21:24:04.729Z,5.95
2022-09-06T21:26:32.364Z,5.53
2022-09-06T21:28:59.603Z,4.78
2022-09-06T21:31:31.402Z,4.93
2022-09-06T21:34:03.851Z,5.63
2022-09-06T21:36:35.806Z,5.35
2022-09-06T21:39:15.273Z,4.35
2022-09-06T21:41:44.086Z,4.25
2022-09-06T21:44:12.333Z,3.88
2022-09-06T21:46:40.620Z,4.35
2022-09-06T21:49:13.427Z,3.80
2022-09-06T21:51:41.771Z,6.55
2022-09-06T21:54:09.561Z,7.28
2022-09-06T21:56:38.760Z,7.25
2022-09-06T21:59:07.330Z,7.82
2022-09-06T22:01:36.663Z,7.07
2022-09-06T22:04:06.010Z,7.18
2022-09-06T22:06:35.170Z,7.75
2022-09-06T22:09:11.555Z,7.47
2022-09-06T22:11:41.187Z,7.57
2022-09-06T22:14:11.879Z,7.13
2022-09-06T22:16:40.573Z,7.22
2022-09-06T22:19:10.090Z,6.68
2022-09-06T22:21:38.705Z,6.07
2022-09-06T22:24:11.334Z,7.65
2022-09-06T22:26:40.708Z,7.63
2022-09-06T22:29:10.784Z,7.18
2022-09-06T22:31:39.302Z,7.38
2022-09-06T22:34:06.572Z,7.95
2022-09-06T22:36:33.933Z,7.65
2022-09-06T22:39:01.096Z,8.57
2022-09-06T22:41:31.507Z,8.43
2022-09-06T22:44:03.161Z,8.10
2022-09-06T22:46:31.734Z,8.32
2022-09-06T22:48:59.382Z,8.75
2022-09-06T22:51:26.285Z,8.15
2022-09-06T22:53:53.292Z,7.60
2022-09-06T22:56:21.200Z,7.18
2022-09-06T22:58:48.413Z,7.50
2022-09-06T23:01:16.961Z,7.25
2022-09-06T23:03:45.349Z,7.57
2022-09-06T23:06:12.707Z,8.43
2022-09-06T23:08:41.002Z,7.90
2022-09-06T23:11:14.597Z,7.68
2022-09-06T23:16:19.505Z,9.13
2022-09-06T23:18:48.075Z,9.77
2022-09-06T23:21:19.309Z,10.57
2022-09-06T23:23:48.583Z,9.20
2022-09-06T23:26:24.564Z,9.40
2022-09-06T23:28:56.480Z,10.30
2022-09-06T23:31:31.566Z,9.80
2022-09-06T23:34:00.896Z,9.52
2022-09-06T23:36:28.456Z,8.77
2022-09-06T23:38:56.071Z,9.20
2022-09-06T23:41:24.441Z,9.10
2022-09-06T23:43:51.841Z,9.23
2022-09-06T23:46:19.514Z,8.98
2022-09-06T23:48:46.938Z,9.02
2022-09-06T23:51:14.166Z,8.75
2022-09-06T23:53:41.476Z,8.63
2022-09-06T23:56:09.087Z,7.80
2022-09-06T23:58:36.633Z,8.13
